Latest Weather Observations for Hopetoun Airport

IDV60801

Issued at 4:31 am EDT Sunday 1 March 2015 (issued every 30 minutes, with the page automatically refreshed every 10 minutes)

About weather observations | Map of weather stations | Latest weather observations for VIC | Other Formats
Station Details ID: 077010 Name: HOPETOUN AIRPORT Lat: -35.72 Lon: 142.36 Height: 77.3 m
Data from the previous 72 hours. | See also: Recent months at Hopetoun Airport
Date/Time
EDT
Temp
°C
App
Temp
°C
Dew
Point
Rel
Hum
%
Delta-T
°C
Wind Press
QNH
hPa
Press
MSL
hPa
Rain
since 9 am
mm
Dir
 
Spd
km/h
Gust
km/h
Spd
kts
Gust
kts
01/04:30am 14.5 11.8 11.7 83 1.5 SW 17 22 9 12 1009.6 1009.3 0.0
01/04:00am 14.9 11.6 11.5 80 1.8 SW 20 26 11 14 1009.5 1009.2 0.0
01/03:30am 15.3 11.9 11.3 77 2.2 SSW 20 28 11 15 1009.5 1009.2 0.0
01/03:00am 16.0 10.2 11.6 75 2.4 SSW 33 43 18 23 1009.1 1008.8 0.0
01/02:30am 16.5 11.3 12.7 78 2.1 SW 32 43 17 23 1008.6 1008.3 0.0
01/02:00am 17.3 12.3 13.4 78 2.2 SW 32 43 17 23 1008.4 1008.1 0.0
01/01:30am 18.2 13.7 14.9 81 1.9 SW 32 43 17 23 1008.2 1007.9 0.0
01/01:00am 18.6 15.0 15.3 81 1.9 SW 28 43 15 23 1007.8 1007.5 0.0
01/12:30am 19.0 15.1 15.5 80 2.1 SW 30 37 16 20 1007.7 1007.4 0.0
01/12:00am 20.2 16.2 16.8 81 2.1 SW 33 43 18 23 1007.2 1006.8 0.0
 
Date/Time
EDT
Temp
°C
App
Temp
°C
Dew
Point
Rel
Hum
%
Delta-T
°C
Wind Press
QNH
hPa
Press
MSL
hPa
Rain
since 9 am
mm
Dir
 
Spd
km/h
Gust
km/h
Spd
kts
Gust
kts
28/11:30pm 20.1 16.3 17.1 83 1.8 SW 33 43 18 23 1006.8 1006.4 0.0
28/11:00pm 20.4 16.4 16.6 79 2.3 SW 33 43 18 23 1006.3 1005.9 0.0
28/10:44pm 20.6 16.6 16.6 78 2.4 SW 33 43 18 23 1005.9 1005.5 0.0
28/10:30pm 22.2 17.4 15.5 66 4.0 WSW 35 46 19 25 1006.6 1006.2 0.0
28/10:00pm 22.3 19.6 15.6 66 4.0 SW 24 35 13 19 1005.3 1004.9 0.0
28/09:30pm 23.4 19.7 14.9 59 5.1 SW 28 41 15 22 1005.5 1005.1 0.0
28/09:00pm 24.1 19.8 14.5 55 5.7 SW 30 39 16 21 1004.7 1004.3 0.0
28/08:30pm 25.0 19.2 13.9 50 6.6 SW 37 48 20 26 1004.1 1003.7 0.0
28/08:00pm 27.0 18.8 14.1 45 7.7 SW 50 65 27 35 1003.1 1002.7 0.0
28/07:30pm 29.3 19.4 13.1 37 9.7 SW 57 76 31 41 1002.4 1002.1 0.0
28/07:21pm 31.6 22.7 11.9 30 11.6 SW 50 76 27 41 1001.9 1001.6 0.0
28/07:00pm 34.6 26.0 10.4 23 14.2 WSW 46 59 25 32 1000.7 1000.4 0.0
28/06:42pm 36.0 30.0 10.9 22 14.8 W 33 50 18 27 1000.1 999.8 0.0
28/06:30pm 36.6 31.7 10.0 20 15.5 WNW 26 39 14 21 999.9 999.6 0.0
28/06:00pm 37.0 30.3 9.6 19 16.0 NW 35 48 19 26 999.6 999.3 0.0
28/05:47pm 37.8 32.0 9.4 18 16.5 WNW 30 57 16 31 999.7 999.4 0.0
28/05:30pm 38.0 32.2 9.6 18 16.6 WNW 30 48 16 26 999.8 999.5 0.0
28/05:18pm 38.4 32.9 9.0 17 17.1 WNW 28 61 15 33 999.7 999.4 0.0
28/05:00pm 38.3 32.8 9.0 17 17.1 WNW 28 46 15 25 1000.0 999.7 0.0
28/04:36pm 38.0 32.4 8.7 17 16.9 WNW 28 48 15 26 1000.3 1000.0 0.0
28/04:30pm 37.8 33.1 9.4 18 16.5 WNW 24 37 13 20 1000.4 1000.1 0.0
28/04:03pm 37.5 30.8 8.3 17 16.7 WNW 33 52 18 28 1000.7 1000.4 0.0
28/04:00pm 38.2 31.3 8.9 17 17.0 WNW 35 52 19 28 1000.7 1000.4 0.0
28/03:30pm 37.4 30.3 8.2 17 16.7 WNW 35 54 19 29 1001.2 1000.9 0.0
28/03:17pm 38.6 32.4 9.2 17 17.1 WNW 32 52 17 28 1001.3 1001.0 0.0
28/03:00pm 38.0 32.0 8.7 17 17.0 WNW 30 43 16 23 1001.8 1001.5 0.0
28/02:30pm 38.6 32.2 9.2 17 17.2 NW 33 54 18 29 1002.1 1001.8 0.0
28/02:00pm 36.7 30.3 9.3 19 15.9 NW 33 48 18 26 1003.0 1002.6 0.0
28/01:30pm 36.0 29.3 9.5 20 15.3 NNW 35 50 19 27 1003.4 1003.0 0.0
28/01:00pm 35.2 28.5 8.1 19 15.3 N 33 52 18 28 1003.8 1003.4 0.0
28/12:53pm 35.3 29.0 8.9 20 15.1 N 32 52 17 28 1004.1 1003.7 0.0
28/12:30pm 34.8 27.8 7.0 18 15.4 N 33 46 18 25 1004.8 1004.4 0.0
28/12:00pm 32.5 26.2 7.4 21 13.9 N 30 41 16 22 1005.3 1004.9 0.0
28/11:30am 30.4 25.2 8.7 26 12.1 N 26 35 14 19 1005.8 1005.4 0.0
28/11:00am 28.1 23.2 9.9 32 10.2 NNE 26 35 14 19 1005.9 1005.5 0.0
28/10:30am 27.1 23.3 11.2 37 9.1 NNE 22 30 12 16 1005.9 1005.5 0.0
28/10:00am 24.4 21.4 12.7 48 6.8 NE 20 28 11 15 1005.9 1005.5 0.0
28/09:30am 22.5 19.0 13.3 56 5.3 NE 24 32 13 17 1006.1 1005.7 0.0
28/09:00am 21.5 19.1 13.9 62 4.4 E 19 24 10 13 1006.3 1005.9 0.4
28/08:30am 21.3 20.0 13.7 62 4.4 E 13 17 7 9 1006.5 1006.1 0.4
28/08:00am 20.8 20.6 13.5 63 4.2 E 7 13 4 7 1007.0 1006.6 0.4
28/07:30am 21.6 21.8 13.0 58 4.9 SSE 4 6 2 3 1007.3 1006.9 0.4
28/07:00am 23.0 21.8 9.4 42 7.4 E 6 9 3 5 1006.5 1006.1 0.0
28/06:30am 23.1 21.2 9.1 41 7.5 E 9 13 5 7 1006.1 1005.7 0.0
28/06:00am 23.0 20.8 9.4 42 7.4 ESE 11 19 6 10 1006.3 1005.9 0.0
28/05:30am 23.1 21.8 9.1 41 7.5 SSE 6 6 3 3 1006.6 1006.2 0.0
28/05:00am 23.4 21.8 8.7 39 7.9 SSE 7 9 4 5 1006.4 1006.0 0.0
28/04:30am 23.7 22.2 8.6 38 8.1 SSE 6 11 3 6 1006.7 1006.3 0.0
28/04:00am 24.1 22.3 8.1 36 8.5 S 7 9 4 5 1007.0 1006.6 0.0
28/03:30am 24.3 22.1 7.9 35 8.7 SE 9 11 5 6 1007.1 1006.7 0.0
28/03:00am 24.7 21.7 7.8 34 9.0 SE 13 19 7 10 1007.0 1006.6 0.0
28/02:30am 25.1 21.8 8.1 34 9.1 SE 15 20 8 11 1007.3 1006.9 0.0
28/02:00am 25.4 21.7 8.0 33 9.3 SSE 17 22 9 12 1007.5 1007.1 0.0
28/01:30am 25.8 21.5 7.9 32 9.6 SE 20 24 11 13 1007.6 1007.2 0.0
28/01:00am 26.5 23.0 10.2 36 9.1 SSE 19 26 10 14 1007.8 1007.5 0.0
28/12:30am 26.8 24.9 11.7 39 8.7 SSE 13 17 7 9 1008.2 1007.9 0.0
28/12:00am 27.2 26.2 12.4 40 8.6 S 9 11 5 6 1008.3 1008.0 0.0
 
Date/Time
EDT
Temp
°C
App
Temp
°C
Dew
Point
Rel
Hum
%
Delta-T
°C
Wind Press
QNH
hPa
Press
MSL
hPa
Rain
since 9 am
mm
Dir
 
Spd
km/h
Gust
km/h
Spd
kts
Gust
kts
27/11:30pm 27.7 27.9 12.9 40 8.7 SSE 4 7 2 4 1008.2 1007.9 0.0
27/11:00pm 27.5 27.5 12.3 39 8.9 SE 4 4 2 2 1008.4 1008.1 0.0
27/10:30pm 28.0 27.6 12.4 38 9.1 SE 6 6 3 3 1008.4 1008.1 0.0
27/10:00pm 28.7 28.2 12.6 37 9.5 SSE 7 11 4 6 1008.2 1007.9 0.0
27/09:30pm 29.1 27.8 12.5 36 9.8 SSE 11 15 6 8 1007.8 1007.5 0.0
27/09:00pm 29.5 28.5 12.4 35 10.1 SE 9 13 5 7 1007.4 1007.0 0.0
27/08:30pm 30.2 29.3 12.6 34 10.4 SSE 9 13 5 7 1007.1 1006.7 0.0
27/08:00pm 30.8 30.3 12.7 33 10.8 S 7 11 4 6 1006.7 1006.3 0.0
27/07:30pm 31.0 29.7 12.4 32 11.0 SSW 11 15 6 8 1006.8 1006.4 0.0
27/07:00pm 31.3 30.8 12.6 31 11.1 SSW 7 11 4 6 1006.8 1006.4 0.0
27/06:30pm 31.4 30.5 12.7 32 11.1 SW 9 19 5 10 1006.6 1006.2 0.0
27/06:00pm 31.5 31.0 12.8 32 11.2 SW 7 13 4 7 1006.6 1006.2 0.0
27/05:30pm 31.8 31.5 12.6 31 11.4 SSE 6 13 3 7 1006.7 1006.3 0.0
27/05:00pm 32.1 31.8 12.8 30 11.6 SW 6 13 3 7 1006.9 1006.5 0.0
27/04:30pm 31.7 30.4 12.5 31 11.4 WNW 11 19 6 10 1007.2 1006.8 0.0
27/04:00pm 31.1 30.6 12.0 31 11.3 SSE 6 11 3 6 1007.6 1007.2 0.0
27/03:30pm 30.6 29.5 12.0 32 10.9 SSE 9 17 5 9 1007.7 1007.4 0.0
27/03:00pm 30.5 29.8 11.9 31 10.9 WNW 7 11 4 6 1008.4 1008.1 0.0
27/02:30pm 30.4 30.2 11.9 32 10.8 SSE 4 13 2 7 1008.8 1008.5 0.0
27/02:00pm 29.5 28.4 12.0 34 10.2 WNW 9 17 5 9 1009.3 1009.0 0.0
27/01:30pm 28.8 28.0 10.9 33 10.2 NNE 6 13 3 7 1009.6 1009.3 0.0
27/01:00pm 28.4 27.6 11.0 34 10.0 N 6 13 3 7 1010.0 1009.7 0.0
27/12:30pm 26.7 25.6 10.0 35 9.3 NW 6 13 3 7 1010.6 1010.3 0.0
27/12:00pm 25.7 25.3 11.1 40 8.3 NE 4 9 2 5 1010.9 1010.6 0.0
27/11:30am 24.9 24.9 12.5 46 7.2 ESE 4 7 2 4 1011.1 1010.8 0.0
27/11:00am 24.3 24.1 12.9 49 6.6 NNE 6 9 3 5 1011.4 1011.1 0.0
27/10:30am 23.2 22.9 13.4 54 5.7 E 7 13 4 7 1011.5 1011.2 0.0
27/10:00am 21.3 20.2 13.0 59 4.8 E 11 17 6 9 1011.6 1011.3 0.0
27/09:30am 20.1 18.9 12.8 63 4.1 ESE 11 17 6 9 1011.7 1011.4 0.0
27/09:00am 18.8 16.7 12.5 67 3.5 SE 15 19 8 10 1011.6 1011.3 0.0
27/08:30am 17.2 15.8 12.3 73 2.7 SE 11 17 6 9 1011.5 1011.2 0.0
27/08:00am 15.8 14.3 12.0 78 2.1 SE 11 15 6 8 1010.9 1010.6 0.0
27/07:30am 14.8 14.0 11.8 82 1.6 SE 7 9 4 5 1010.6 1010.3 0.0
27/07:00am 14.9 13.7 11.7 81 1.7 ESE 9 13 5 7 1010.1 1009.8 0.0
27/06:30am 15.3 14.2 11.9 80 1.8 SSE 9 13 5 7 1010.3 1010.0 0.0
27/06:00am 15.6 14.1 11.8 78 2.1 SSE 11 15 6 8 1010.0 1009.7 0.0
27/05:30am 15.9 13.3 11.9 77 2.2 SSE 17 20 9 11 1009.9 1009.6 0.0
27/05:00am 16.3 14.4 11.9 75 2.4 SSE 13 19 7 10 1009.7 1009.4 0.0
27/04:30am 16.8 14.1 11.7 72 2.8 SSE 17 24 9 13 1009.7 1009.4 0.0
27/04:00am 17.2 13.9 11.7 70 3.0 SSE 20 26 11 14 1010.2 1009.9 0.0
27/03:30am 17.6 14.2 11.2 66 3.5 SSE 20 28 11 15 1010.3 1010.0 0.0
27/03:00am 18.2 15.3 11.0 63 3.9 SSE 17 24 9 13 1010.2 1009.9 0.0
27/02:30am 18.6 15.1 10.2 58 4.5 S 19 26 10 14 1010.6 1010.3 0.0
27/02:00am 18.7 16.9 9.5 55 4.9 S 9 13 5 7 1010.5 1010.2 0.0
27/01:30am 19.2 17.3 9.1 52 5.3 S 9 11 5 6 1010.5 1010.2 0.0
27/01:00am 20.2 18.5 10.0 52 5.5 SSW 9 13 5 7 1010.3 1010.0 0.0
27/12:30am 20.2 18.5 9.7 51 5.6 SSW 9 9 5 5 1010.3 1010.0 0.0
27/12:00am 20.5 18.3 9.4 49 5.9 SW 11 13 6 7 1010.2 1009.9 0.0
 
Date/Time
EDT
Temp
°C
App
Temp
°C
Dew
Point
Rel
Hum
%
Delta-T
°C
Wind Press
QNH
hPa
Press
MSL
hPa
Rain
since 9 am
mm
Dir
 
Spd
km/h
Gust
km/h
Spd
kts
Gust
kts
26/11:30pm 21.5 19.8 9.7 47 6.4 SSW 9 11 5 6 1010.2 1009.9 0.0
26/11:00pm 23.6 22.1 10.6 44 7.2 S 9 11 5 6 1010.1 1009.8 0.0
26/10:30pm 24.5 23.2 11.1 43 7.5 S 9 13 5 7 1010.1 1009.8 0.0
26/10:00pm 25.4 24.2 11.6 42 7.9 S 9 13 5 7 1009.9 1009.6 0.0
26/09:30pm 26.1 24.2 11.8 41 8.2 SSW 13 17 7 9 1009.7 1009.4 0.0
26/09:00pm 27.1 24.9 12.0 39 8.7 SSW 15 22 8 12 1009.4 1009.1 0.0
26/08:30pm 27.9 25.0 12.3 38 9.1 SSW 19 26 10 14 1009.1 1008.8 0.0
26/08:00pm 29.0 25.6 12.4 36 9.8 SSW 22 30 12 16 1008.6 1008.3 0.0
26/07:30pm 30.0 26.7 12.9 35 10.2 SW 22 28 12 15 1008.3 1008.0 0.0
26/07:00pm 30.6 26.8 12.5 33 10.7 SW 24 32 13 17 1008.0 1007.7 0.0
26/06:30pm 31.1 26.9 12.5 32 11.0 SW 26 37 14 20 1007.9 1007.6 0.0
26/06:00pm 30.9 28.0 12.3 32 11.0 SW 19 32 10 17 1007.8 1007.5 0.0
26/05:30pm 31.2 28.2 12.1 31 11.3 SW 19 28 10 15 1008.1 1007.8 0.0
26/05:00pm 31.4 27.5 12.2 30 11.4 SSW 24 37 13 20 1008.3 1008.0 0.0
26/04:30pm 31.4 28.0 11.2 29 11.7 SW 20 32 11 17 1008.4 1008.1 0.0
26/04:00pm 31.8 28.2 10.5 27 12.3 SSW 20 30 11 16 1008.7 1008.4 0.0
26/03:30pm 30.0 26.2 11.0 31 10.9 SSW 22 33 12 18 1009.0 1008.7 0.0
26/03:00pm 30.1 25.9 9.6 28 11.6 SSW 22 39 12 21 1009.5 1009.2 0.0
26/02:30pm 31.6 27.7 8.6 24 12.8 SSW 19 32 10 17 1009.7 1009.4 0.0
26/02:00pm 29.9 26.2 7.8 25 12.1 SW 17 26 9 14 1010.1 1009.8 0.0
26/01:30pm 30.1 26.8 7.9 25 12.2 SSW 15 26 8 14 1010.5 1010.2 0.0
26/01:00pm 28.4 25.4 7.6 27 11.3 SW 13 26 7 14 1010.9 1010.6 0.0
26/12:30pm 27.2 24.7 8.1 30 10.3 SSW 11 19 6 10 1011.1 1010.8 0.0
26/12:00pm 25.8 23.3 8.3 33 9.4 S 11 19 6 10 1011.4 1011.1 0.0
26/11:30am 25.0 22.9 9.7 38 8.4 SSW 11 19 6 10 1011.6 1011.3 0.0
26/11:00am 23.5 21.8 9.9 42 7.5 S 9 15 5 8 1011.7 1011.4 0.0
26/10:30am 21.9 20.7 11.6 52 5.8 S 9 15 5 8 1011.7 1011.4 0.0
26/10:00am 21.1 19.7 12.3 57 5.0 S 11 17 6 9 1011.7 1011.4 0.0
26/09:30am 20.7 18.3 12.7 60 4.5 SSW 17 22 9 12 1011.7 1011.4 0.0
26/09:00am 19.2 17.6 12.9 67 3.6 SSW 13 15 7 8 1011.3 1011.0 0.0
26/08:30am 18.4 17.2 12.8 70 3.1 SSW 11 17 6 9 1011.2 1010.9 0.0
26/08:00am 17.9 17.1 12.8 72 2.9 S 9 13 5 7 1010.5 1010.2 0.0
26/07:30am 17.8 17.3 12.7 72 2.9 S 7 13 4 7 1010.2 1009.9 0.0
26/07:00am 17.6 16.0 12.7 73 2.7 SSW 13 17 7 9 1010.2 1009.9 0.0
26/06:30am 17.4 15.0 12.5 73 2.7 SW 17 20 9 11 1010.1 1009.8 0.0
26/06:00am 17.5 16.5 12.2 71 2.9 SSW 9 13 5 7 1009.5 1009.2 0.0
26/05:30am 17.2 16.3 11.5 69 3.1 SSW 7 9 4 5 1009.5 1009.2 0.0
26/05:00am 17.6 16.0 11.4 67 3.4 SW 11 13 6 7 1009.9 1009.6 0.0

Other Formats:

Comma delimited format used in spreadsheet applications
http://www.bom.gov.au/fwo/IDV60801/IDV60801.94838.axf

JavaScript Object Notation format (JSON) in row-major order
http://www.bom.gov.au/fwo/IDV60801/IDV60801.94838.json